createdAt,value
2022-12-09T00:02:19.254Z,96819.00
2022-12-09T00:04:47.694Z,96814.69
2022-12-09T00:07:17.525Z,96813.00
2022-12-09T00:09:45.878Z,96800.13
2022-12-09T00:12:14.203Z,96796.59
2022-12-09T00:14:42.407Z,96797.44
2022-12-09T00:17:10.869Z,96782.19
2022-12-09T00:19:39.133Z,96758.06
2022-12-09T00:22:07.354Z,96740.88
2022-12-09T00:24:36.880Z,96774.31
2022-12-09T00:27:05.416Z,96777.75
2022-12-09T00:29:33.766Z,96776.91
2022-12-09T00:32:02.015Z,96792.38
2022-12-09T00:34:30.454Z,96786.25
2022-12-09T00:36:58.693Z,96770.88
2022-12-09T00:39:26.946Z,96789.69
2022-12-09T00:41:56.585Z,96801.69
2022-12-09T00:44:24.707Z,96790.50
2022-12-09T00:46:52.969Z,96789.63
2022-12-09T00:49:21.766Z,96799.19
2022-12-09T00:51:50.426Z,96751.38
2022-12-09T00:54:19.301Z,96754.75
2022-12-09T00:56:48.256Z,96806.09
2022-12-09T00:59:18.480Z,96809.53
2022-12-09T01:01:47.383Z,96807.75
2022-12-09T01:04:17.665Z,96782.00
2022-12-09T01:06:46.550Z,96801.75
2022-12-09T01:09:15.551Z,96807.00
2022-12-09T01:11:44.429Z,96816.56
2022-12-09T01:14:13.285Z,96814.81
2022-12-09T01:16:43.603Z,96802.69
2022-12-09T01:19:15.189Z,96776.09
2022-12-09T01:21:43.748Z,96808.91
2022-12-09T01:24:13.239Z,96798.25
2022-12-09T01:26:41.771Z,96796.50
2022-12-09T01:29:10.493Z,96778.56
2022-12-09T01:31:39.254Z,96783.72
2022-12-09T01:34:09.567Z,96782.06
2022-12-09T01:36:38.402Z,96773.47
2022-12-09T01:39:07.630Z,96759.66
2022-12-09T01:41:36.693Z,96759.66
2022-12-09T01:44:14.256Z,96774.22
2022-12-09T01:46:43.119Z,96766.59
2022-12-09T01:49:17.109Z,96772.66
2022-12-09T01:51:49.274Z,96754.81
2022-12-09T01:54:18.391Z,96780.53
2022-12-09T01:56:47.130Z,96727.44
2022-12-09T01:59:17.256Z,96751.50
2022-12-09T02:01:49.469Z,96740.34
2022-12-09T02:04:20.528Z,96778.03
2022-12-09T02:06:49.626Z,96781.63
2022-12-09T02:09:18.260Z,96770.34
2022-12-09T02:12:00.349Z,96765.25
2022-12-09T02:14:36.989Z,96763.41
2022-12-09T02:17:22.920Z,96748.03
2022-12-09T02:20:02.712Z,96771.16
2022-12-09T02:22:36.321Z,96753.94
2022-12-09T02:25:14.018Z,96746.09
2022-12-09T02:27:48.617Z,96740.97
2022-12-09T02:30:20.571Z,96734.13
2022-12-09T02:33:27.547Z,96750.47
2022-12-09T02:36:02.646Z,96745.25
2022-12-09T02:38:34.658Z,96737.50
2022-12-09T02:41:09.089Z,96714.38
2022-12-09T02:43:48.075Z,96722.13
2022-12-09T02:46:21.821Z,96734.88
2022-12-09T02:48:54.742Z,96723.59
2022-12-09T02:51:27.880Z,96714.13
2022-12-09T02:54:03.914Z,96716.72
2022-12-09T02:56:34.240Z,96667.00
2022-12-09T02:59:03.694Z,96722.72
2022-12-09T03:01:38.577Z,96700.41
2022-12-09T03:04:09.171Z,96708.84
2022-12-09T03:06:46.813Z,96594.84
2022-12-09T03:09:20.158Z,96701.78
2022-12-09T03:11:50.723Z,96706.09
2022-12-09T03:14:24.330Z,96710.44
2022-12-09T03:16:59.696Z,96704.53
2022-12-09T03:19:33.723Z,96689.94
2022-12-09T03:22:07.138Z,96701.13
2022-12-09T03:24:40.860Z,96700.34
2022-12-09T03:27:12.902Z,96708.91
2022-12-09T03:29:47.540Z,96703.00
2022-12-09T03:32:19.447Z,96716.75
2022-12-09T03:34:52.078Z,96709.91
2022-12-09T03:37:23.342Z,96715.03
2022-12-09T03:39:53.703Z,96698.63
2022-12-09T03:42:25.798Z,96704.66
2022-12-09T03:45:00.670Z,96697.03
2022-12-09T03:47:30.422Z,96699.47
2022-12-09T03:49:59.954Z,96698.59
2022-12-09T03:52:37.998Z,96690.94
2022-12-09T03:55:10.819Z,96702.88
2022-12-09T03:57:44.121Z,96272.81
2022-12-09T04:00:14.076Z,96710.47
2022-12-09T04:02:43.694Z,96710.47
2022-12-09T04:05:13.164Z,96708.69
2022-12-09T04:07:43.567Z,96712.09
2022-12-09T04:10:12.976Z,96713.00
2022-12-09T04:12:42.310Z,96713.00
2022-12-09T04:15:11.690Z,96701.06
2022-12-09T04:17:40.755Z,96694.13
2022-12-09T04:20:10.830Z,96729.41
2022-12-09T04:22:39.829Z,96707.94
2022-12-09T04:25:11.094Z,96721.69
2022-12-09T04:27:40.155Z,96676.16
2022-12-09T04:30:10.434Z,96553.91
2022-12-09T04:32:39.449Z,96698.44
2022-12-09T04:35:08.878Z,96695.84
2022-12-09T04:37:37.979Z,96659.13
2022-12-09T04:40:07.724Z,96711.41
2022-12-09T04:42:38.430Z,96714.84
2022-12-09T04:45:08.382Z,96659.16
2022-12-09T04:47:36.976Z,96576.19
2022-12-09T04:50:07.919Z,96638.59
2022-12-09T04:52:36.862Z,96722.53
2022-12-09T04:55:06.188Z,96719.09
2022-12-09T04:57:34.845Z,96711.22
2022-12-09T05:00:05.998Z,96702.75
2022-12-09T05:02:35.670Z,96687.31
2022-12-09T05:05:04.821Z,96705.22
2022-12-09T05:07:33.826Z,96674.44
2022-12-09T05:10:03.133Z,96672.69
2022-12-09T05:12:33.968Z,96694.94
2022-12-09T05:15:02.778Z,96695.81
2022-12-09T05:17:33.108Z,96693.22
2022-12-09T05:20:02.111Z,96634.06
2022-12-09T05:22:30.923Z,96681.13
2022-12-09T05:24:59.982Z,96683.72
2022-12-09T05:27:28.831Z,96681.09
2022-12-09T05:29:57.714Z,96683.63
2022-12-09T05:32:29.882Z,96676.78
2022-12-09T05:35:00.241Z,96640.88
2022-12-09T05:37:29.217Z,96673.31
2022-12-09T05:39:58.194Z,96680.19
2022-12-09T05:42:26.998Z,96678.50
2022-12-09T05:44:56.481Z,96678.53
2022-12-09T05:47:25.564Z,96566.47
2022-12-09T05:49:54.766Z,96633.09
2022-12-09T05:52:25.099Z,96663.88
2022-12-09T05:54:53.951Z,96647.66
2022-12-09T05:57:22.837Z,96656.97
2022-12-09T05:59:51.877Z,96633.00
2022-12-09T06:02:20.998Z,96632.25
2022-12-09T06:04:49.962Z,96613.47
2022-12-09T06:07:19.650Z,96592.97
2022-12-09T06:09:50.300Z,96644.31
2022-12-09T06:12:19.887Z,96622.81
2022-12-09T06:14:48.804Z,96637.44
2022-12-09T06:17:17.511Z,96618.63
2022-12-09T06:19:46.830Z,96630.50
2022-12-09T06:22:15.687Z,96623.72
2022-12-09T06:24:44.458Z,96635.81
2022-12-09T06:27:14.637Z,96626.31
2022-12-09T06:29:43.549Z,96621.19
2022-12-09T06:32:12.434Z,96620.31
2022-12-09T06:34:41.578Z,96618.53
2022-12-09T06:37:10.939Z,96615.97
2022-12-09T06:39:40.168Z,96622.03
2022-12-09T06:42:08.986Z,96623.78
2022-12-09T06:44:40.416Z,96539.97
2022-12-09T06:47:09.893Z,96616.94
2022-12-09T06:49:38.639Z,96608.28
2022-12-09T06:52:07.491Z,96609.09
2022-12-09T06:54:36.597Z,96582.56
2022-12-09T06:57:05.590Z,96605.59
2022-12-09T06:59:34.623Z,96608.16
2022-12-09T07:02:05.784Z,96608.94
2022-12-09T07:04:35.266Z,96602.91
2022-12-09T07:07:04.406Z,96586.63
2022-12-09T07:09:33.456Z,96592.50
2022-12-09T07:12:03.551Z,96570.94
2022-12-09T07:14:32.629Z,96576.91
2022-12-09T07:17:04.024Z,96521.41
2022-12-09T07:19:33.731Z,96590.38
2022-12-09T07:22:03.648Z,96579.91
2022-12-09T07:24:32.802Z,96590.25
2022-12-09T07:27:06.353Z,96586.84
2022-12-09T07:29:38.498Z,96579.16
2022-12-09T07:32:10.748Z,96559.72
2022-12-09T07:34:39.862Z,96590.59
2022-12-09T07:37:08.527Z,96588.00
2022-12-09T07:39:37.559Z,96583.72
2022-12-09T07:42:07.137Z,96582.88
2022-12-09T07:44:35.872Z,96588.03
2022-12-09T07:47:05.495Z,96569.16
2022-12-09T07:49:35.920Z,96567.34
2022-12-09T07:52:05.637Z,96573.19
2022-12-09T07:54:34.521Z,96558.53
2022-12-09T07:57:03.134Z,96570.34
2022-12-09T07:59:32.423Z,96579.69
2022-12-09T08:02:05.702Z,96585.72
2022-12-09T08:04:37.194Z,96609.88
2022-12-09T08:07:06.534Z,96547.38
2022-12-09T08:09:35.857Z,96580.53
2022-12-09T08:12:05.230Z,96589.19
2022-12-09T08:14:34.776Z,96584.94
2022-12-09T08:17:03.809Z,96589.28
2022-12-09T08:19:33.185Z,96582.47
2022-12-09T08:22:03.881Z,96579.06
2022-12-09T08:24:33.418Z,96579.09
2022-12-09T08:27:02.665Z,96566.06
2022-12-09T08:29:31.468Z,96560.00
2022-12-09T08:32:00.710Z,96558.34
2022-12-09T08:34:30.088Z,96553.91
2022-12-09T08:37:02.010Z,96548.72
2022-12-09T08:39:33.058Z,96530.75
2022-12-09T08:42:01.750Z,96542.66
2022-12-09T08:44:30.531Z,96537.66
2022-12-09T08:46:59.527Z,96534.28
2022-12-09T08:49:29.947Z,96533.38
2022-12-09T08:51:58.956Z,96531.75
2022-12-09T08:54:28.133Z,96535.19
2022-12-09T08:56:58.523Z,96535.09
2022-12-09T08:59:27.666Z,96524.63
2022-12-09T09:01:56.541Z,96520.16
2022-12-09T09:04:26.209Z,96485.09
2022-12-09T09:06:56.299Z,96515.81
2022-12-09T09:09:25.409Z,96505.47
2022-12-09T09:11:54.185Z,96476.13
2022-12-09T09:14:24.362Z,96504.34
2022-12-09T09:16:53.510Z,96504.31
2022-12-09T09:19:25.762Z,96477.88
2022-12-09T09:21:56.100Z,96498.31
2022-12-09T09:24:26.966Z,96512.03
2022-12-09T09:26:56.847Z,96506.94
2022-12-09T09:29:27.111Z,96480.44
2022-12-09T09:31:57.477Z,96460.84
2022-12-09T09:34:28.224Z,96440.63
2022-12-09T09:36:57.816Z,96493.25
2022-12-09T09:39:27.319Z,96480.22
2022-12-09T09:42:04.442Z,96487.84
2022-12-09T09:44:41.389Z,96485.97
2022-12-09T09:47:18.709Z,96475.53
2022-12-09T09:49:55.704Z,96469.22
2022-12-09T09:52:28.400Z,96452.84
2022-12-09T09:54:58.035Z,96359.03
2022-12-09T09:57:33.968Z,96464.66
2022-12-09T10:00:15.803Z,96445.69
2022-12-09T10:02:59.871Z,96420.72
2022-12-09T10:05:33.607Z,96409.41
2022-12-09T10:08:19.936Z,96424.88
2022-12-09T10:10:58.514Z,96436.84
2022-12-09T10:13:42.008Z,96411.00
2022-12-09T10:16:18.158Z,96395.53
2022-12-09T10:19:05.726Z,96417.09
2022-12-09T10:21:42.353Z,96414.44
2022-12-09T10:24:21.102Z,96417.06
2022-12-09T10:27:07.567Z,96316.41
2022-12-09T10:29:47.795Z,96394.00
2022-12-09T10:32:21.447Z,96396.69
2022-12-09T10:34:50.643Z,96355.59
2022-12-09T10:37:31.499Z,96340.13
2022-12-09T10:40:07.895Z,96361.72
2022-12-09T10:43:02.106Z,96353.53
2022-12-09T10:45:52.441Z,96352.44
2022-12-09T10:48:34.909Z,96356.75
2022-12-09T10:51:07.991Z,96342.94
2022-12-09T10:53:38.254Z,96349.81
2022-12-09T10:56:08.573Z,96342.66
2022-12-09T10:58:38.026Z,96346.97
2022-12-09T11:01:11.027Z,96346.97
2022-12-09T11:03:50.670Z,96348.72
2022-12-09T11:06:27.284Z,96338.28
2022-12-09T11:08:59.175Z,96217.31
2022-12-09T11:11:42.943Z,96327.66
2022-12-09T11:14:27.218Z,96320.91
2022-12-09T11:16:58.894Z,96314.03
2022-12-09T11:19:35.319Z,96311.38
2022-12-09T11:22:24.324Z,96305.19
2022-12-09T11:24:56.752Z,96312.88
2022-12-09T11:27:32.579Z,96285.63
2022-12-09T11:30:14.297Z,96311.22
2022-12-09T11:32:59.773Z,96266.66
2022-12-09T11:35:34.124Z,96259.94
2022-12-09T11:38:06.503Z,96202.81
2022-12-09T11:40:35.138Z,96299.00
2022-12-09T11:43:04.421Z,96285.91
2022-12-09T11:45:38.659Z,96278.03
2022-12-09T11:48:37.305Z,96222.69
2022-12-09T11:51:06.760Z,96231.69
2022-12-09T11:53:40.882Z,96265.22
2022-12-09T11:56:18.848Z,96274.34
2022-12-09T11:58:52.048Z,96267.19
2022-12-09T12:01:26.301Z,96265.47
2022-12-09T12:03:58.201Z,96263.94
2022-12-09T12:06:32.048Z,96254.53
2022-12-09T12:09:06.310Z,96251.09
2022-12-09T12:11:42.309Z,96249.63
2022-12-09T12:14:18.458Z,96134.66
2022-12-09T12:16:56.103Z,96231.44
2022-12-09T12:19:31.701Z,96227.00
2022-12-09T12:22:29.979Z,96221.81
2022-12-09T12:25:17.437Z,96231.34
2022-12-09T12:28:03.300Z,96259.69
2022-12-09T12:30:41.819Z,96224.84
2022-12-09T12:36:30.978Z,96201.09
2022-12-09T12:39:14.240Z,96203.59
2022-12-09T12:41:52.444Z,96195.16
2022-12-09T12:44:52.638Z,96190.84
2022-12-09T12:47:26.849Z,96184.75
2022-12-09T12:50:15.829Z,96184.75
2022-12-09T12:52:58.259Z,96174.22
2022-12-09T12:55:44.951Z,96172.47
2022-12-09T12:58:20.802Z,96164.44
2022-12-09T13:01:01.562Z,96152.50
2022-12-09T13:03:40.409Z,96181.63
2022-12-09T13:06:15.399Z,96166.25
2022-12-09T13:08:50.088Z,96167.97
2022-12-09T13:11:23.278Z,96165.63
2022-12-09T13:13:56.720Z,96139.50
2022-12-09T13:16:30.238Z,96143.41
2022-12-09T13:19:07.251Z,96120.06
2022-12-09T13:21:36.536Z,96130.34
2022-12-09T13:24:18.507Z,96125.00
2022-12-09T13:26:55.989Z,96130.00
2022-12-09T13:29:36.669Z,96133.59
2022-12-09T13:32:18.709Z,96120.66
2022-12-09T13:34:51.802Z,96128.09
2022-12-09T13:37:56.959Z,96127.53
2022-12-09T13:40:32.300Z,96126.63
2022-12-09T13:43:12.962Z,96111.25
2022-12-09T13:45:51.347Z,96121.44
2022-12-09T13:48:48.440Z,96120.03
2022-12-09T13:51:18.898Z,96117.53
2022-12-09T13:54:07.279Z,96104.44
2022-12-09T13:56:38.439Z,96098.50
2022-12-09T13:59:40.315Z,96102.84
2022-12-09T14:02:24.630Z,96086.28
2022-12-09T14:05:05.323Z,96081.03
2022-12-09T14:07:39.221Z,96045.34
2022-12-09T14:10:29.400Z,96089.38
2022-12-09T14:13:24.409Z,96079.19
2022-12-09T14:16:33.628Z,96083.63
2022-12-09T14:19:36.288Z,96092.47
2022-12-09T14:22:44.061Z,96090.78
2022-12-09T14:25:51.860Z,96098.81
2022-12-09T14:28:52.359Z,96118.53
2022-12-09T14:31:59.733Z,96100.50
2022-12-09T14:34:45.399Z,96098.97
2022-12-09T14:37:40.248Z,96084.59
2022-12-09T14:40:28.069Z,96089.78
2022-12-09T14:43:07.841Z,96085.66
2022-12-09T14:45:45.889Z,96087.41
2022-12-09T14:48:20.939Z,96076.06
2022-12-09T14:51:08.053Z,96057.00
2022-12-09T14:53:38.999Z,95931.41
2022-12-09T14:56:08.272Z,96056.91
2022-12-09T14:58:37.191Z,96055.16
2022-12-09T15:01:08.009Z,96011.78
2022-12-09T15:03:44.868Z,96056.84
2022-12-09T15:06:21.011Z,96050.69
2022-12-09T15:08:51.176Z,96015.81
2022-12-09T15:11:24.141Z,96048.19
2022-12-09T15:13:54.580Z,96035.44
2022-12-09T15:16:26.300Z,96042.91
2022-12-09T15:18:56.070Z,96038.72
2022-12-09T15:21:30.149Z,96039.56
2022-12-09T15:24:00.059Z,96056.84
2022-12-09T15:26:31.490Z,96018.22
2022-12-09T15:29:01.585Z,96022.34
2022-12-09T15:31:32.151Z,95930.50
2022-12-09T15:34:09.401Z,96032.47
2022-12-09T15:36:41.772Z,96029.28
2022-12-09T15:39:15.080Z,95977.34
2022-12-09T15:42:03.461Z,95940.88
2022-12-09T15:44:37.409Z,96014.63
2022-12-09T15:47:10.755Z,96013.78
2022-12-09T15:49:44.640Z,96014.69
2022-12-09T15:52:20.381Z,95981.34
2022-12-09T15:54:50.112Z,96012.84
2022-12-09T15:57:21.803Z,96007.63
2022-12-09T15:59:56.089Z,96005.97
2022-12-09T16:02:28.503Z,96000.88
2022-12-09T16:05:01.913Z,95997.66
2022-12-09T16:07:33.071Z,95944.13
2022-12-09T16:10:04.041Z,95965.47
2022-12-09T16:12:34.691Z,96002.09
2022-12-09T16:15:04.752Z,95998.50
2022-12-09T16:17:37.920Z,96006.13
2022-12-09T16:20:22.389Z,95991.38
2022-12-09T16:22:52.680Z,95990.47
2022-12-09T16:25:24.099Z,95966.94
2022-12-09T16:27:59.462Z,95783.59
2022-12-09T16:30:31.419Z,95982.81
2022-12-09T16:33:01.565Z,95925.38
2022-12-09T16:35:37.273Z,95985.41
2022-12-09T16:38:25.180Z,95965.19
2022-12-09T16:41:14.909Z,95968.47
2022-12-09T16:43:58.278Z,95989.13
2022-12-09T16:46:42.060Z,95978.94
2022-12-09T16:49:10.699Z,95974.69
2022-12-09T16:51:40.252Z,95967.78
2022-12-09T16:54:20.663Z,95974.66
2022-12-09T16:56:51.633Z,95964.28
2022-12-09T16:59:20.245Z,95961.69
2022-12-09T17:01:48.868Z,95956.41
2022-12-09T17:04:22.690Z,95844.16
2022-12-09T17:06:53.234Z,95933.22
2022-12-09T17:09:24.714Z,95937.44
2022-12-09T17:11:54.734Z,95920.16
2022-12-09T17:14:25.055Z,95927.09
2022-12-09T17:16:55.061Z,95783.56
2022-12-09T17:19:25.212Z,95916.50
2022-12-09T17:21:55.975Z,95898.75
2022-12-09T17:24:27.733Z,95907.22
2022-12-09T17:26:58.093Z,95906.31
2022-12-09T17:29:28.214Z,95904.63
2022-12-09T17:31:58.581Z,95910.72
2022-12-09T17:34:28.692Z,95854.56
2022-12-09T17:36:58.954Z,95924.44
2022-12-09T17:39:30.675Z,95900.47
2022-12-09T17:42:00.854Z,95905.47
2022-12-09T17:44:31.732Z,95878.47
2022-12-09T17:47:01.873Z,95892.63
2022-12-09T17:49:31.874Z,95844.41
2022-12-09T17:52:01.795Z,95892.03
2022-12-09T17:54:33.253Z,95875.94
2022-12-09T17:57:03.015Z,95875.81
2022-12-09T17:59:35.485Z,95881.69
2022-12-09T18:02:05.865Z,95864.06
2022-12-09T18:04:35.814Z,95877.63
2022-12-09T18:07:05.895Z,95821.50
2022-12-09T18:09:37.452Z,95871.66
2022-12-09T18:12:08.092Z,95845.38
2022-12-09T18:14:38.952Z,95665.34
2022-12-09T18:17:09.010Z,95861.13
2022-12-09T18:19:39.333Z,95866.06
2022-12-09T18:22:09.553Z,95863.03
2022-12-09T18:24:41.254Z,95860.81
2022-12-09T18:27:11.232Z,95864.25
2022-12-09T18:29:42.512Z,95871.31
2022-12-09T18:32:12.511Z,95865.81
2022-12-09T18:34:42.411Z,95881.81
2022-12-09T18:37:12.737Z,95862.25
2022-12-09T18:39:44.552Z,95844.75
2022-12-09T18:42:14.872Z,95843.94
2022-12-09T18:44:45.292Z,95874.66
2022-12-09T18:47:15.054Z,95862.84
2022-12-09T18:49:45.235Z,95882.06
2022-12-09T18:52:15.292Z,95876.84
2022-12-09T18:54:48.314Z,95878.72
2022-12-09T18:57:18.812Z,95872.44
2022-12-09T18:59:50.972Z,95862.31
2022-12-09T19:02:21.437Z,95848.91
2022-12-09T19:04:51.454Z,95902.00
2022-12-09T19:07:21.436Z,95912.19
2022-12-09T19:09:53.132Z,95902.09
2022-12-09T19:12:46.555Z,95903.31
2022-12-09T19:15:14.263Z,95896.28
2022-12-09T19:17:44.073Z,95877.66
2022-12-09T19:20:14.832Z,95879.34
2022-12-09T19:22:45.073Z,95873.25
2022-12-09T19:25:16.894Z,95884.06
2022-12-09T19:27:47.738Z,95882.22
2022-12-09T19:30:18.013Z,95796.56
2022-12-09T19:32:54.918Z,95839.63
2022-12-09T19:35:25.052Z,95906.69
2022-12-09T19:38:00.904Z,95904.28
2022-12-09T19:40:33.031Z,95821.94
2022-12-09T19:43:03.073Z,95892.41
2022-12-09T19:45:33.092Z,95871.91
2022-12-09T19:48:03.052Z,95844.22
2022-12-09T19:50:33.133Z,95891.75
2022-12-09T19:53:03.013Z,95885.53
2022-12-09T19:55:37.834Z,95886.47
2022-12-09T19:58:09.754Z,95794.94
2022-12-09T20:00:41.722Z,95875.13
2022-12-09T20:03:12.119Z,95869.94
2022-12-09T20:05:51.612Z,95898.16
2022-12-09T20:08:21.770Z,95858.38
2022-12-09T20:10:53.873Z,95857.41
2022-12-09T20:13:28.598Z,95896.63
2022-12-09T20:16:06.773Z,95894.34
2022-12-09T20:18:37.473Z,95896.94
2022-12-09T20:21:08.993Z,95892.59
2022-12-09T20:23:40.933Z,95890.81
2022-12-09T20:26:15.133Z,95886.66
2022-12-09T20:28:47.281Z,95884.97
2022-12-09T20:31:20.151Z,95888.38
2022-12-09T20:33:54.113Z,95893.50
2022-12-09T20:36:27.471Z,95888.38
2022-12-09T20:38:59.196Z,95879.06
2022-12-09T20:41:31.532Z,95883.91
2022-12-09T20:44:02.474Z,95880.16
2022-12-09T20:46:34.915Z,95879.63
2022-12-09T20:49:04.978Z,95852.44
2022-12-09T20:51:37.613Z,95861.78
2022-12-09T20:54:08.595Z,95863.00
2022-12-09T20:56:40.455Z,95880.03
2022-12-09T20:59:11.474Z,95847.78
2022-12-09T21:01:41.842Z,95865.56
2022-12-09T21:04:11.895Z,95851.03
2022-12-09T21:06:42.953Z,95858.78
2022-12-09T21:09:18.052Z,95842.88
2022-12-09T21:11:50.952Z,95842.53
2022-12-09T21:14:21.954Z,95857.19
2022-12-09T21:16:52.552Z,95854.75
2022-12-09T21:19:25.779Z,95820.78
2022-12-09T21:21:56.033Z,95861.91
2022-12-09T21:24:26.433Z,95884.34
2022-12-09T21:26:58.314Z,95862.56
2022-12-09T21:29:32.210Z,95820.41
2022-12-09T21:32:03.344Z,95859.56
2022-12-09T21:34:33.471Z,95861.94
2022-12-09T21:37:03.673Z,95880.66
2022-12-09T21:39:34.252Z,95892.63
2022-12-09T21:42:05.874Z,95897.53
2022-12-09T21:44:35.972Z,95848.84
2022-12-09T21:47:06.293Z,95888.84
2022-12-09T21:49:36.235Z,95874.59
2022-12-09T21:52:07.235Z,95847.50
2022-12-09T21:54:37.272Z,95798.44
2022-12-09T21:57:09.112Z,95917.28
2022-12-09T21:59:39.413Z,95799.97
2022-12-09T22:02:09.344Z,95903.41
2022-12-09T22:04:40.052Z,95914.31
2022-12-09T22:07:10.093Z,95793.69
2022-12-09T22:09:40.892Z,95900.69
2022-12-09T22:12:11.563Z,95920.78
2022-12-09T22:14:40.252Z,95939.72
2022-12-09T22:17:08.843Z,95947.75
2022-12-09T22:19:37.604Z,95952.78
2022-12-09T22:22:09.176Z,95936.63
2022-12-09T22:24:37.912Z,95895.84
2022-12-09T22:27:06.723Z,95916.03
2022-12-09T22:29:36.954Z,95928.56
2022-12-09T22:32:05.894Z,95943.94
2022-12-09T22:34:34.787Z,95954.31
2022-12-09T22:37:15.056Z,95965.41
2022-12-09T22:39:52.753Z,95948.13
2022-12-09T22:42:21.472Z,95972.84
2022-12-09T22:44:51.686Z,95898.69
2022-12-09T22:47:20.824Z,95806.38
2022-12-09T22:49:49.723Z,95968.56
2022-12-09T22:52:18.643Z,95868.47
2022-12-09T22:54:47.208Z,95924.50
2022-12-09T22:57:15.793Z,95939.41
2022-12-09T22:59:44.474Z,95962.75
2022-12-09T23:02:14.865Z,95968.81
2022-12-09T23:04:43.585Z,95872.03
2022-12-09T23:07:12.404Z,95934.78
2022-12-09T23:09:41.152Z,96002.03
2022-12-09T23:12:09.984Z,95991.75
2022-12-09T23:14:39.154Z,95987.34
2022-12-09T23:17:07.724Z,95952.19
2022-12-09T23:19:37.923Z,95991.53
2022-12-09T23:22:06.712Z,95998.66
2022-12-09T23:24:35.803Z,95997.91
2022-12-09T23:27:04.903Z,95948.41
2022-12-09T23:29:33.533Z,95985.16
2022-12-09T23:32:02.236Z,95997.06
2022-12-09T23:34:30.806Z,96011.13
2022-12-09T23:37:00.865Z,96013.88
2022-12-09T23:39:29.613Z,96013.22
2022-12-09T23:41:58.114Z,96016.38
2022-12-09T23:44:26.943Z,96012.91
2022-12-09T23:46:55.665Z,96014.81
2022-12-09T23:49:24.423Z,96015.81
2022-12-09T23:51:53.003Z,96014.16
2022-12-09T23:54:23.204Z,96007.31
2022-12-09T23:56:51.803Z,96016.75
2022-12-09T23:59:22.834Z,96021.00
